Hovedside
METAR-TAF:

METAR-TAF

Lufthavner :

Dundee, Skottland

breddegrad: 56-27N, lengdegrad: 003-01W, høyde over havet: 4 m

Gjeldene værobservasjon

Denne rapporten ble laget for 1 time og 32 minutter siden, klokken 19:50 UTC
Vind 3 kt fra Vest-sørvest
Temperatur 14°C
Luftfuktighet 77%
Trykk 995 hPa
Sikt 10 km eller mer
Få skyer i en høyde av 2000 ft
byger på avstand,

METAR: EGPN 141950Z 25003KT 9999 VCSH FEW020 14/10 Q0995

Tid: 22:22 (21:22 UTC)

Varsel

Denne rapporten ble laget for 4 timer og 27 minutter siden, klokken 16:55 UTC
Varsel gyldig fra 14. klokken 18 UTC til 14. klokken 21 UTC
Vind 7 kt fra Sørvest
Sikt 10 km eller mer
Spredte skyer i en høyde av 700 ft
Midlertidig
fra 14. klokken 18 UTC til 14. klokken 21 UTC
Sikt: 6000 m
regnbyger
Sannsynlighet 30% :
Midlertidig
fra 14. klokken 18 UTC til 14. klokken 21 UTC
Sikt: 3000 m
kraftige regnbyger,

TAF: EGPN 141655Z 1418/1421 23007KT 9999 SCT007 TEMPO 1418/1421 6000 SHRA PROB30 TEMPO 1418/1421 3000 +SHRA

Værobservasjoner og værvarsel for over 4000 flyplasser (METAR- og TAF-rapporter).

Tilgjengelige stasjoner er representert av de røde og gule prikkene på kartet.

Hold musepekeren over prikken for å se navnet på stasjonen.

Klikk så for å se værobservasjoner og -varsler.

For å forandre kartet kan du klikke på den grønne knappen med svart kryss for å zoome inn, på den grønne knappen med strek for å zoome ut, eller på de grønne pilene for å se tilstøtende kart.


METAR-TAF: